Blue Hill, Nebraska
Current Conditions -  °F | °C
As of 2:53 AM on Friday 19 Dec 2014 (Local Time) from KHSI Reporting Station
Overcast Overcast  
Wind Chill: 22°   Ceiling: 1000
Heat Index: 30°   Visibility: 10mi
Dew Point: 26°   Wind: 8mph
Humidity: 85%   Direction: 230°SW
Pressure: 30.16"   Gusts: NA
Location:  40.33°N, 98.45°W
Report Text: KHSI 190853Z AUTO 23007KT 10SM OVC010 M01/M03 A3016 RMK AO2 SLP235 T10111033 57004
Loading
Personal Weather Stations






























Interactive Weather Map New forecast layout! Learn more

10-Day Weather Forecast

Advertisements
Track Severe Weather on mobile